sensor_id;sensor_type;location;lat;lon;timestamp;P1;durP1;ratioP1;P2;durP2;ratioP2
9467;SDS011;4772;52.382;9.752;2022-07-29T00:02:00;5.87;;;1.53;;
9467;SDS011;4772;52.382;9.752;2022-07-29T00:04:26;5.17;;;1.70;;
9467;SDS011;4772;52.382;9.752;2022-07-29T00:06:52;3.23;;;1.60;;
9467;SDS011;4772;52.382;9.752;2022-07-29T00:09:18;4.23;;;1.40;;
9467;SDS011;4772;52.382;9.752;2022-07-29T00:11:44;5.70;;;1.50;;
9467;SDS011;4772;52.382;9.752;2022-07-29T00:14:10;4.27;;;1.47;;
9467;SDS011;4772;52.382;9.752;2022-07-29T00:16:36;4.47;;;1.50;;
9467;SDS011;4772;52.382;9.752;2022-07-29T00:19:02;2.90;;;1.30;;
9467;SDS011;4772;52.382;9.752;2022-07-29T00:21:28;4.13;;;1.50;;
9467;SDS011;4772;52.382;9.752;2022-07-29T00:23:54;4.83;;;1.47;;
9467;SDS011;4772;52.382;9.752;2022-07-29T00:26:20;2.13;;;1.23;;
9467;SDS011;4772;52.382;9.752;2022-07-29T00:28:47;4.20;;;1.40;;
9467;SDS011;4772;52.382;9.752;2022-07-29T00:31:13;3.50;;;1.40;;
9467;SDS011;4772;52.382;9.752;2022-07-29T00:33:39;3.13;;;1.30;;
9467;SDS011;4772;52.382;9.752;2022-07-29T00:36:05;4.73;;;1.53;;
9467;SDS011;4772;52.382;9.752;2022-07-29T00:38:31;6.13;;;1.40;;
9467;SDS011;4772;52.382;9.752;2022-07-29T00:40:57;2.80;;;1.30;;
9467;SDS011;4772;52.382;9.752;2022-07-29T00:43:23;2.47;;;1.50;;
9467;SDS011;4772;52.382;9.752;2022-07-29T00:45:49;2.53;;;1.30;;
9467;SDS011;4772;52.382;9.752;2022-07-29T00:48:15;3.50;;;1.40;;
9467;SDS011;4772;52.382;9.752;2022-07-29T00:50:41;3.83;;;1.30;;
9467;SDS011;4772;52.382;9.752;2022-07-29T00:53:07;3.43;;;1.40;;
9467;SDS011;4772;52.382;9.752;2022-07-29T00:55:33;3.10;;;1.27;;
9467;SDS011;4772;52.382;9.752;2022-07-29T00:58:00;3.90;;;1.60;;
9467;SDS011;4772;52.382;9.752;2022-07-29T01:00:27;3.57;;;1.73;;
9467;SDS011;4772;52.382;9.752;2022-07-29T01:02:53;2.27;;;1.37;;
9467;SDS011;4772;52.382;9.752;2022-07-29T01:05:20;2.60;;;1.30;;
9467;SDS011;4772;52.382;9.752;2022-07-29T01:07:46;3.70;;;1.50;;
9467;SDS011;4772;52.382;9.752;2022-07-29T01:10:13;4.07;;;1.60;;
9467;SDS011;4772;52.382;9.752;2022-07-29T01:12:40;2.63;;;1.50;;
9467;SDS011;4772;52.382;9.752;2022-07-29T01:15:07;3.53;;;1.40;;
9467;SDS011;4772;52.382;9.752;2022-07-29T01:21:16;7.50;;;1.67;;
9467;SDS011;4772;52.382;9.752;2022-07-29T01:26:03;3.00;;;1.70;;
9467;SDS011;4772;52.382;9.752;2022-07-29T01:31:15;2.83;;;1.53;;
9467;SDS011;4772;52.382;9.752;2022-07-29T01:33:43;3.47;;;1.40;;
9467;SDS011;4772;52.382;9.752;2022-07-29T01:36:27;3.87;;;1.47;;
9467;SDS011;4772;52.382;9.752;2022-07-29T01:38:59;3.20;;;1.50;;
9467;SDS011;4772;52.382;9.752;2022-07-29T01:41:28;4.60;;;1.40;;
9467;SDS011;4772;52.382;9.752;2022-07-29T01:43:57;2.87;;;1.27;;
9467;SDS011;4772;52.382;9.752;2022-07-29T01:46:28;5.00;;;1.70;;
9467;SDS011;4772;52.382;9.752;2022-07-29T01:48:57;7.07;;;2.10;;
9467;SDS011;4772;52.382;9.752;2022-07-29T01:51:25;3.13;;;1.60;;
9467;SDS011;4772;52.382;9.752;2022-07-29T01:54:08;3.47;;;1.73;;
9467;SDS011;4772;52.382;9.752;2022-07-29T01:56:36;5.43;;;1.80;;
9467;SDS011;4772;52.382;9.752;2022-07-29T01:59:04;2.13;;;1.40;;
9467;SDS011;4772;52.382;9.752;2022-07-29T02:01:32;4.63;;;1.60;;
9467;SDS011;4772;52.382;9.752;2022-07-29T02:03:59;2.40;;;1.40;;
9467;SDS011;4772;52.382;9.752;2022-07-29T02:06:27;3.53;;;1.40;;
9467;SDS011;4772;52.382;9.752;2022-07-29T02:08:55;4.40;;;1.63;;
9467;SDS011;4772;52.382;9.752;2022-07-29T02:11:21;2.97;;;1.43;;
9467;SDS011;4772;52.382;9.752;2022-07-29T02:13:48;3.30;;;1.60;;
9467;SDS011;4772;52.382;9.752;2022-07-29T02:16:14;6.73;;;1.57;;
9467;SDS011;4772;52.382;9.752;2022-07-29T02:18:41;3.00;;;1.30;;
9467;SDS011;4772;52.382;9.752;2022-07-29T02:21:08;2.20;;;1.50;;
9467;SDS011;4772;52.382;9.752;2022-07-29T02:23:35;3.87;;;1.70;;
9467;SDS011;4772;52.382;9.752;2022-07-29T02:26:02;6.03;;;1.70;;
9467;SDS011;4772;52.382;9.752;2022-07-29T02:28:29;1.63;;;1.40;;
9467;SDS011;4772;52.382;9.752;2022-07-29T02:30:55;3.00;;;1.63;;
9467;SDS011;4772;52.382;9.752;2022-07-29T02:33:23;2.40;;;1.50;;
9467;SDS011;4772;52.382;9.752;2022-07-29T02:35:50;1.97;;;1.60;;
9467;SDS011;4772;52.382;9.752;2022-07-29T02:38:18;4.87;;;1.70;;
9467;SDS011;4772;52.382;9.752;2022-07-29T02:41:04;1.97;;;1.33;;
9467;SDS011;4772;52.382;9.752;2022-07-29T02:43:31;3.63;;;1.70;;
9467;SDS011;4772;52.382;9.752;2022-07-29T02:45:58;1.93;;;1.40;;
9467;SDS011;4772;52.382;9.752;2022-07-29T02:48:27;2.27;;;1.33;;
9467;SDS011;4772;52.382;9.752;2022-07-29T02:50:59;2.33;;;1.30;;
9467;SDS011;4772;52.382;9.752;2022-07-29T02:53:27;2.93;;;1.70;;
9467;SDS011;4772;52.382;9.752;2022-07-29T02:55:59;5.37;;;1.40;;
9467;SDS011;4772;52.382;9.752;2022-07-29T02:58:29;3.13;;;1.43;;
9467;SDS011;4772;52.382;9.752;2022-07-29T03:00:56;5.87;;;1.60;;
9467;SDS011;4772;52.382;9.752;2022-07-29T03:03:24;4.57;;;1.60;;
9467;SDS011;4772;52.382;9.752;2022-07-29T03:05:54;4.70;;;1.67;;
9467;SDS011;4772;52.382;9.752;2022-07-29T03:08:21;2.60;;;1.53;;
9467;SDS011;4772;52.382;9.752;2022-07-29T03:10:48;4.53;;;1.50;;
9467;SDS011;4772;52.382;9.752;2022-07-29T03:13:14;2.77;;;1.60;;
9467;SDS011;4772;52.382;9.752;2022-07-29T03:15:44;5.80;;;1.80;;
9467;SDS011;4772;52.382;9.752;2022-07-29T03:18:10;3.50;;;1.80;;
9467;SDS011;4772;52.382;9.752;2022-07-29T03:20:37;3.47;;;1.40;;
9467;SDS011;4772;52.382;9.752;2022-07-29T03:23:03;5.13;;;1.70;;
9467;SDS011;4772;52.382;9.752;2022-07-29T03:25:30;6.47;;;2.10;;
9467;SDS011;4772;52.382;9.752;2022-07-29T03:27:56;8.27;;;1.70;;
9467;SDS011;4772;52.382;9.752;2022-07-29T03:30:22;4.13;;;1.90;;
9467;SDS011;4772;52.382;9.752;2022-07-29T03:32:49;2.87;;;1.60;;
9467;SDS011;4772;52.382;9.752;2022-07-29T03:35:15;5.07;;;1.77;;
9467;SDS011;4772;52.382;9.752;2022-07-29T03:37:42;3.87;;;1.63;;
9467;SDS011;4772;52.382;9.752;2022-07-29T03:40:08;4.30;;;1.90;;
9467;SDS011;4772;52.382;9.752;2022-07-29T03:42:37;4.30;;;1.60;;
9467;SDS011;4772;52.382;9.752;2022-07-29T03:45:05;5.70;;;1.60;;
9467;SDS011;4772;52.382;9.752;2022-07-29T03:47:33;5.27;;;1.97;;
9467;SDS011;4772;52.382;9.752;2022-07-29T03:50:02;4.80;;;1.80;;
9467;SDS011;4772;52.382;9.752;2022-07-29T03:52:31;2.47;;;1.63;;
9467;SDS011;4772;52.382;9.752;2022-07-29T03:54:59;4.73;;;1.70;;
9467;SDS011;4772;52.382;9.752;2022-07-29T03:57:27;3.90;;;1.70;;
9467;SDS011;4772;52.382;9.752;2022-07-29T03:59:53;3.13;;;1.53;;
9467;SDS011;4772;52.382;9.752;2022-07-29T04:02:20;6.23;;;1.80;;
9467;SDS011;4772;52.382;9.752;2022-07-29T04:04:46;3.83;;;1.60;;
9467;SDS011;4772;52.382;9.752;2022-07-29T04:07:12;2.63;;;1.67;;
9467;SDS011;4772;52.382;9.752;2022-07-29T04:09:39;6.93;;;1.80;;
9467;SDS011;4772;52.382;9.752;2022-07-29T04:12:05;2.30;;;1.70;;
9467;SDS011;4772;52.382;9.752;2022-07-29T04:14:31;4.07;;;1.80;;
9467;SDS011;4772;52.382;9.752;2022-07-29T04:16:58;4.90;;;1.80;;
9467;SDS011;4772;52.382;9.752;2022-07-29T04:19:24;3.87;;;1.70;;
9467;SDS011;4772;52.382;9.752;2022-07-29T04:21:50;3.93;;;1.80;;
9467;SDS011;4772;52.382;9.752;2022-07-29T04:24:16;4.97;;;1.67;;
9467;SDS011;4772;52.382;9.752;2022-07-29T04:26:42;6.33;;;1.70;;
9467;SDS011;4772;52.382;9.752;2022-07-29T04:29:08;6.17;;;1.67;;
9467;SDS011;4772;52.382;9.752;2022-07-29T04:31:34;5.47;;;1.80;;
9467;SDS011;4772;52.382;9.752;2022-07-29T04:34:00;5.40;;;1.90;;
9467;SDS011;4772;52.382;9.752;2022-07-29T04:36:26;5.53;;;1.90;;
9467;SDS011;4772;52.382;9.752;2022-07-29T04:38:52;6.03;;;2.00;;
9467;SDS011;4772;52.382;9.752;2022-07-29T04:41:18;2.73;;;1.80;;
9467;SDS011;4772;52.382;9.752;2022-07-29T04:43:44;3.07;;;2.00;;
9467;SDS011;4772;52.382;9.752;2022-07-29T04:46:11;5.93;;;2.20;;
9467;SDS011;4772;52.382;9.752;2022-07-29T04:48:37;4.00;;;1.63;;
9467;SDS011;4772;52.382;9.752;2022-07-29T04:51:03;5.93;;;1.60;;
9467;SDS011;4772;52.382;9.752;2022-07-29T04:53:29;3.60;;;1.70;;
9467;SDS011;4772;52.382;9.752;2022-07-29T04:55:55;3.17;;;1.80;;
9467;SDS011;4772;52.382;9.752;2022-07-29T04:58:21;3.47;;;1.83;;
9467;SDS011;4772;52.382;9.752;2022-07-29T05:00:48;3.83;;;1.90;;
9467;SDS011;4772;52.382;9.752;2022-07-29T05:03:14;3.63;;;2.00;;
9467;SDS011;4772;52.382;9.752;2022-07-29T05:05:40;6.80;;;2.30;;
9467;SDS011;4772;52.382;9.752;2022-07-29T05:08:07;3.27;;;1.70;;
9467;SDS011;4772;52.382;9.752;2022-07-29T05:10:33;5.77;;;1.93;;
9467;SDS011;4772;52.382;9.752;2022-07-29T05:13:03;3.67;;;1.90;;
9467;SDS011;4772;52.382;9.752;2022-07-29T05:15:29;3.37;;;1.87;;
9467;SDS011;4772;52.382;9.752;2022-07-29T05:17:55;6.23;;;2.10;;
9467;SDS011;4772;52.382;9.752;2022-07-29T05:20:21;3.20;;;1.87;;
9467;SDS011;4772;52.382;9.752;2022-07-29T05:22:51;4.87;;;2.20;;
9467;SDS011;4772;52.382;9.752;2022-07-29T05:25:17;3.60;;;1.90;;
9467;SDS011;4772;52.382;9.752;2022-07-29T05:27:43;4.80;;;1.93;;
9467;SDS011;4772;52.382;9.752;2022-07-29T05:30:10;2.97;;;2.03;;
9467;SDS011;4772;52.382;9.752;2022-07-29T05:32:36;5.50;;;1.90;;
9467;SDS011;4772;52.382;9.752;2022-07-29T05:35:02;5.33;;;2.07;;
9467;SDS011;4772;52.382;9.752;2022-07-29T05:37:28;6.50;;;2.17;;
9467;SDS011;4772;52.382;9.752;2022-07-29T05:39:54;2.83;;;2.00;;
9467;SDS011;4772;52.382;9.752;2022-07-29T05:42:19;6.90;;;2.00;;
9467;SDS011;4772;52.382;9.752;2022-07-29T05:44:46;5.47;;;2.03;;
9467;SDS011;4772;52.382;9.752;2022-07-29T05:47:12;8.70;;;1.93;;
9467;SDS011;4772;52.382;9.752;2022-07-29T05:49:38;5.37;;;1.93;;
9467;SDS011;4772;52.382;9.752;2022-07-29T05:52:04;4.47;;;1.93;;
9467;SDS011;4772;52.382;9.752;2022-07-29T05:54:30;4.07;;;1.80;;
9467;SDS011;4772;52.382;9.752;2022-07-29T05:56:56;4.63;;;2.40;;
9467;SDS011;4772;52.382;9.752;2022-07-29T05:59:22;5.20;;;2.17;;
9467;SDS011;4772;52.382;9.752;2022-07-29T06:01:48;5.03;;;2.27;;
9467;SDS011;4772;52.382;9.752;2022-07-29T06:04:14;5.10;;;2.30;;
9467;SDS011;4772;52.382;9.752;2022-07-29T06:06:40;6.53;;;2.40;;
9467;SDS011;4772;52.382;9.752;2022-07-29T06:09:06;5.53;;;2.10;;
9467;SDS011;4772;52.382;9.752;2022-07-29T06:11:32;6.00;;;2.20;;
9467;SDS011;4772;52.382;9.752;2022-07-29T06:13:58;5.63;;;1.90;;
9467;SDS011;4772;52.382;9.752;2022-07-29T06:16:24;5.63;;;2.40;;
9467;SDS011;4772;52.382;9.752;2022-07-29T06:18:50;7.63;;;2.47;;
9467;SDS011;4772;52.382;9.752;2022-07-29T06:21:17;5.13;;;2.50;;
9467;SDS011;4772;52.382;9.752;2022-07-29T06:23:43;6.80;;;2.33;;
9467;SDS011;4772;52.382;9.752;2022-07-29T06:26:10;3.53;;;1.90;;
9467;SDS011;4772;52.382;9.752;2022-07-29T06:28:36;9.53;;;2.73;;
9467;SDS011;4772;52.382;9.752;2022-07-29T06:31:02;8.70;;;2.40;;
9467;SDS011;4772;52.382;9.752;2022-07-29T06:33:28;5.83;;;2.30;;
9467;SDS011;4772;52.382;9.752;2022-07-29T06:35:54;7.93;;;2.77;;
9467;SDS011;4772;52.382;9.752;2022-07-29T06:38:20;7.30;;;2.40;;
9467;SDS011;4772;52.382;9.752;2022-07-29T06:40:46;7.67;;;2.30;;
9467;SDS011;4772;52.382;9.752;2022-07-29T06:43:25;8.00;;;2.27;;
9467;SDS011;4772;52.382;9.752;2022-07-29T06:45:52;5.37;;;2.60;;
9467;SDS011;4772;52.382;9.752;2022-07-29T06:48:18;9.47;;;2.40;;
9467;SDS011;4772;52.382;9.752;2022-07-29T06:50:44;5.87;;;2.07;;
9467;SDS011;4772;52.382;9.752;2022-07-29T06:53:10;6.03;;;2.23;;
9467;SDS011;4772;52.382;9.752;2022-07-29T06:55:36;5.83;;;2.53;;
9467;SDS011;4772;52.382;9.752;2022-07-29T06:58:02;5.07;;;2.50;;
9467;SDS011;4772;52.382;9.752;2022-07-29T07:00:28;11.80;;;2.87;;
9467;SDS011;4772;52.382;9.752;2022-07-29T07:02:55;6.07;;;2.70;;
9467;SDS011;4772;52.382;9.752;2022-07-29T07:05:21;11.13;;;2.60;;
9467;SDS011;4772;52.382;9.752;2022-07-29T07:07:47;8.20;;;2.70;;
9467;SDS011;4772;52.382;9.752;2022-07-29T07:10:13;4.60;;;2.53;;
9467;SDS011;4772;52.382;9.752;2022-07-29T07:12:39;6.87;;;2.40;;
9467;SDS011;4772;52.382;9.752;2022-07-29T07:15:05;7.53;;;2.67;;
9467;SDS011;4772;52.382;9.752;2022-07-29T07:17:32;4.63;;;2.47;;
9467;SDS011;4772;52.382;9.752;2022-07-29T07:19:58;5.50;;;2.53;;
9467;SDS011;4772;52.382;9.752;2022-07-29T07:22:24;8.20;;;2.90;;
9467;SDS011;4772;52.382;9.752;2022-07-29T07:24:50;5.30;;;2.37;;
9467;SDS011;4772;52.382;9.752;2022-07-29T07:27:16;12.00;;;3.00;;
9467;SDS011;4772;52.382;9.752;2022-07-29T07:29:42;6.33;;;2.80;;
9467;SDS011;4772;52.382;9.752;2022-07-29T07:32:08;6.20;;;2.70;;
9467;SDS011;4772;52.382;9.752;2022-07-29T07:34:34;6.27;;;2.50;;
9467;SDS011;4772;52.382;9.752;2022-07-29T07:37:02;13.33;;;3.10;;
9467;SDS011;4772;52.382;9.752;2022-07-29T07:39:28;4.67;;;2.47;;
9467;SDS011;4772;52.382;9.752;2022-07-29T07:41:54;7.20;;;2.50;;
9467;SDS011;4772;52.382;9.752;2022-07-29T07:44:20;10.83;;;2.70;;
9467;SDS011;4772;52.382;9.752;2022-07-29T07:46:46;7.40;;;2.87;;
9467;SDS011;4772;52.382;9.752;2022-07-29T07:49:12;8.90;;;2.63;;
9467;SDS011;4772;52.382;9.752;2022-07-29T07:51:38;9.17;;;2.80;;
9467;SDS011;4772;52.382;9.752;2022-07-29T07:54:04;9.17;;;2.57;;
9467;SDS011;4772;52.382;9.752;2022-07-29T07:56:30;7.97;;;2.73;;
9467;SDS011;4772;52.382;9.752;2022-07-29T07:58:56;5.77;;;2.80;;
9467;SDS011;4772;52.382;9.752;2022-07-29T08:01:22;5.60;;;2.63;;
9467;SDS011;4772;52.382;9.752;2022-07-29T08:03:49;7.73;;;2.60;;
9467;SDS011;4772;52.382;9.752;2022-07-29T08:06:15;9.47;;;2.80;;
9467;SDS011;4772;52.382;9.752;2022-07-29T08:08:41;6.30;;;2.60;;
9467;SDS011;4772;52.382;9.752;2022-07-29T08:11:07;4.60;;;2.53;;
9467;SDS011;4772;52.382;9.752;2022-07-29T08:13:33;7.73;;;2.80;;
9467;SDS011;4772;52.382;9.752;2022-07-29T08:15:59;5.50;;;2.43;;
9467;SDS011;4772;52.382;9.752;2022-07-29T08:18:27;5.60;;;2.83;;
9467;SDS011;4772;52.382;9.752;2022-07-29T08:20:53;5.63;;;2.47;;
9467;SDS011;4772;52.382;9.752;2022-07-29T08:23:19;7.87;;;2.63;;
9467;SDS011;4772;52.382;9.752;2022-07-29T08:25:46;8.63;;;2.80;;
9467;SDS011;4772;52.382;9.752;2022-07-29T08:28:12;4.73;;;2.57;;
9467;SDS011;4772;52.382;9.752;2022-07-29T08:30:38;7.53;;;2.80;;
9467;SDS011;4772;52.382;9.752;2022-07-29T08:33:04;6.13;;;2.60;;
9467;SDS011;4772;52.382;9.752;2022-07-29T08:35:30;9.97;;;2.63;;
9467;SDS011;4772;52.382;9.752;2022-07-29T08:37:56;5.40;;;2.53;;
9467;SDS011;4772;52.382;9.752;2022-07-29T08:40:23;5.40;;;2.70;;
9467;SDS011;4772;52.382;9.752;2022-07-29T08:42:49;6.27;;;2.67;;
9467;SDS011;4772;52.382;9.752;2022-07-29T08:45:15;4.63;;;2.60;;
9467;SDS011;4772;52.382;9.752;2022-07-29T08:47:41;6.33;;;2.50;;
9467;SDS011;4772;52.382;9.752;2022-07-29T08:50:09;9.10;;;2.57;;
9467;SDS011;4772;52.382;9.752;2022-07-29T08:52:36;6.80;;;2.70;;
9467;SDS011;4772;52.382;9.752;2022-07-29T08:55:03;3.67;;;2.67;;
9467;SDS011;4772;52.382;9.752;2022-07-29T08:57:30;6.83;;;2.90;;
9467;SDS011;4772;52.382;9.752;2022-07-29T08:59:56;6.40;;;2.70;;
9467;SDS011;4772;52.382;9.752;2022-07-29T09:02:23;7.03;;;2.80;;
9467;SDS011;4772;52.382;9.752;2022-07-29T09:04:52;7.10;;;2.60;;
9467;SDS011;4772;52.382;9.752;2022-07-29T09:07:18;5.23;;;2.43;;
9467;SDS011;4772;52.382;9.752;2022-07-29T09:09:44;6.23;;;2.60;;
9467;SDS011;4772;52.382;9.752;2022-07-29T09:12:10;7.43;;;2.97;;
9467;SDS011;4772;52.382;9.752;2022-07-29T09:14:39;5.67;;;2.80;;
9467;SDS011;4772;52.382;9.752;2022-07-29T09:17:07;6.23;;;2.90;;
9467;SDS011;4772;52.382;9.752;2022-07-29T09:19:34;9.27;;;2.70;;
9467;SDS011;4772;52.382;9.752;2022-07-29T09:22:01;6.37;;;2.77;;
9467;SDS011;4772;52.382;9.752;2022-07-29T09:26:53;7.10;;;2.80;;
9467;SDS011;4772;52.382;9.752;2022-07-29T09:29:20;5.73;;;2.53;;
9467;SDS011;4772;52.382;9.752;2022-07-29T09:31:49;7.83;;;2.93;;
9467;SDS011;4772;52.382;9.752;2022-07-29T09:37:07;8.67;;;2.83;;
9467;SDS011;4772;52.382;9.752;2022-07-29T09:39:35;7.73;;;2.90;;
9467;SDS011;4772;52.382;9.752;2022-07-29T09:42:03;6.67;;;2.50;;
9467;SDS011;4772;52.382;9.752;2022-07-29T09:44:42;6.95;;;3.00;;
9467;SDS011;4772;52.382;9.752;2022-07-29T09:47:08;11.43;;;3.33;;
9467;SDS011;4772;52.382;9.752;2022-07-29T09:49:56;3.97;;;2.70;;
9467;SDS011;4772;52.382;9.752;2022-07-29T09:52:23;8.00;;;2.87;;
9467;SDS011;4772;52.382;9.752;2022-07-29T09:54:49;5.43;;;2.60;;
9467;SDS011;4772;52.382;9.752;2022-07-29T09:57:25;8.07;;;3.03;;
9467;SDS011;4772;52.382;9.752;2022-07-29T10:00:25;7.65;;;2.83;;
9467;SDS011;4772;52.382;9.752;2022-07-29T10:02:45;12.38;;;2.80;;
9467;SDS011;4772;52.382;9.752;2022-07-29T10:05:21;13.45;;;3.00;;
9467;SDS011;4772;52.382;9.752;2022-07-29T10:07:52;5.20;;;2.60;;
9467;SDS011;4772;52.382;9.752;2022-07-29T10:10:28;7.60;;;2.63;;
9467;SDS011;4772;52.382;9.752;2022-07-29T10:12:58;9.97;;;3.10;;
9467;SDS011;4772;52.382;9.752;2022-07-29T10:15:25;6.83;;;2.90;;
9467;SDS011;4772;52.382;9.752;2022-07-29T10:17:52;7.53;;;3.00;;
9467;SDS011;4772;52.382;9.752;2022-07-29T10:20:20;9.25;;;2.53;;
9467;SDS011;4772;52.382;9.752;2022-07-29T10:22:46;4.47;;;2.45;;
9467;SDS011;4772;52.382;9.752;2022-07-29T10:25:13;5.03;;;2.80;;
9467;SDS011;4772;52.382;9.752;2022-07-29T10:27:40;4.00;;;2.72;;
9467;SDS011;4772;52.382;9.752;2022-07-29T10:30:06;7.22;;;2.75;;
9467;SDS011;4772;52.382;9.752;2022-07-29T10:35:14;6.93;;;2.63;;
9467;SDS011;4772;52.382;9.752;2022-07-29T10:40:22;4.80;;;2.60;;
9467;SDS011;4772;52.382;9.752;2022-07-29T10:43:19;6.15;;;2.90;;
9467;SDS011;4772;52.382;9.752;2022-07-29T10:45:48;4.07;;;2.60;;
9467;SDS011;4772;52.382;9.752;2022-07-29T10:48:14;4.68;;;2.85;;
9467;SDS011;4772;52.382;9.752;2022-07-29T10:50:57;5.85;;;2.90;;
9467;SDS011;4772;52.382;9.752;2022-07-29T10:56:26;7.45;;;2.75;;
9467;SDS011;4772;52.382;9.752;2022-07-29T11:01:37;5.93;;;3.00;;
9467;SDS011;4772;52.382;9.752;2022-07-29T11:04:03;7.00;;;2.60;;
9467;SDS011;4772;52.382;9.752;2022-07-29T11:09:18;3.40;;;2.95;;
9467;SDS011;4772;52.382;9.752;2022-07-29T11:11:44;5.22;;;2.70;;
9467;SDS011;4772;52.382;9.752;2022-07-29T11:14:10;5.50;;;2.70;;
9467;SDS011;4772;52.382;9.752;2022-07-29T11:19:21;11.05;;;2.63;;
9467;SDS011;4772;52.382;9.752;2022-07-29T11:21:47;8.57;;;3.25;;
9467;SDS011;4772;52.382;9.752;2022-07-29T11:24:15;8.43;;;2.97;;
9467;SDS011;4772;52.382;9.752;2022-07-29T11:26:42;5.17;;;2.80;;
9467;SDS011;4772;52.382;9.752;2022-07-29T11:29:26;8.18;;;2.80;;
9467;SDS011;4772;52.382;9.752;2022-07-29T11:31:52;7.15;;;2.80;;
9467;SDS011;4772;52.382;9.752;2022-07-29T11:34:23;6.10;;;3.08;;
9467;SDS011;4772;52.382;9.752;2022-07-29T11:44:56;3.53;;;2.70;;
9467;SDS011;4772;52.382;9.752;2022-07-29T11:47:23;4.35;;;2.90;;
9467;SDS011;4772;52.382;9.752;2022-07-29T11:49:49;6.13;;;2.63;;
9467;SDS011;4772;52.382;9.752;2022-07-29T11:52:16;9.07;;;2.87;;
9467;SDS011;4772;52.382;9.752;2022-07-29T11:54:42;6.22;;;2.58;;
9467;SDS011;4772;52.382;9.752;2022-07-29T11:57:08;6.32;;;2.75;;
9467;SDS011;4772;52.382;9.752;2022-07-29T11:59:41;6.85;;;2.97;;
9467;SDS011;4772;52.382;9.752;2022-07-29T12:02:08;7.57;;;2.90;;
9467;SDS011;4772;52.382;9.752;2022-07-29T12:04:47;7.45;;;2.90;;
9467;SDS011;4772;52.382;9.752;2022-07-29T12:07:14;5.05;;;2.72;;
9467;SDS011;4772;52.382;9.752;2022-07-29T12:09:41;9.35;;;2.90;;
9467;SDS011;4772;52.382;9.752;2022-07-29T12:12:15;6.78;;;2.80;;
9467;SDS011;4772;52.382;9.752;2022-07-29T12:14:41;6.80;;;2.40;;
9467;SDS011;4772;52.382;9.752;2022-07-29T12:17:24;10.43;;;3.10;;
9467;SDS011;4772;52.382;9.752;2022-07-29T12:19:50;8.40;;;2.83;;
9467;SDS011;4772;52.382;9.752;2022-07-29T12:24:52;4.07;;;2.83;;
9467;SDS011;4772;52.382;9.752;2022-07-29T12:27:18;9.40;;;2.90;;
9467;SDS011;4772;52.382;9.752;2022-07-29T12:29:45;6.22;;;2.70;;
9467;SDS011;4772;52.382;9.752;2022-07-29T12:32:11;4.70;;;2.75;;
9467;SDS011;4772;52.382;9.752;2022-07-29T12:34:37;4.65;;;2.63;;
9467;SDS011;4772;52.382;9.752;2022-07-29T12:37:03;6.03;;;2.67;;
9467;SDS011;4772;52.382;9.752;2022-07-29T12:39:29;5.60;;;2.47;;
9467;SDS011;4772;52.382;9.752;2022-07-29T12:41:56;7.25;;;2.15;;
9467;SDS011;4772;52.382;9.752;2022-07-29T12:44:22;3.47;;;2.47;;
9467;SDS011;4772;52.382;9.752;2022-07-29T12:47:02;5.35;;;2.70;;
9467;SDS011;4772;52.382;9.752;2022-07-29T12:49:28;6.63;;;2.60;;
9467;SDS011;4772;52.382;9.752;2022-07-29T12:51:54;5.38;;;2.53;;
9467;SDS011;4772;52.382;9.752;2022-07-29T12:54:20;6.80;;;2.83;;
9467;SDS011;4772;52.382;9.752;2022-07-29T12:56:58;4.72;;;2.47;;
9467;SDS011;4772;52.382;9.752;2022-07-29T12:59:25;5.75;;;2.63;;
9467;SDS011;4772;52.382;9.752;2022-07-29T13:01:51;6.30;;;2.47;;
9467;SDS011;4772;52.382;9.752;2022-07-29T13:04:24;6.63;;;2.42;;
9467;SDS011;4772;52.382;9.752;2022-07-29T13:06:57;5.10;;;2.25;;
9467;SDS011;4772;52.382;9.752;2022-07-29T13:09:35;4.53;;;2.60;;
9467;SDS011;4772;52.382;9.752;2022-07-29T13:12:01;8.75;;;2.90;;
9467;SDS011;4772;52.382;9.752;2022-07-29T13:14:38;6.13;;;2.63;;
9467;SDS011;4772;52.382;9.752;2022-07-29T13:17:06;5.75;;;2.60;;
9467;SDS011;4772;52.382;9.752;2022-07-29T13:19:33;7.35;;;2.92;;
9467;SDS011;4772;52.382;9.752;2022-07-29T13:22:00;7.35;;;2.70;;
9467;SDS011;4772;52.382;9.752;2022-07-29T13:24:26;4.88;;;2.85;;
9467;SDS011;4772;52.382;9.752;2022-07-29T13:26:52;7.75;;;3.15;;
9467;SDS011;4772;52.382;9.752;2022-07-29T13:29:18;8.10;;;3.35;;
9467;SDS011;4772;52.382;9.752;2022-07-29T13:31:44;6.32;;;2.85;;
9467;SDS011;4772;52.382;9.752;2022-07-29T13:34:10;8.65;;;3.03;;
9467;SDS011;4772;52.382;9.752;2022-07-29T13:36:36;7.22;;;2.90;;
9467;SDS011;4772;52.382;9.752;2022-07-29T13:39:02;8.05;;;2.85;;
9467;SDS011;4772;52.382;9.752;2022-07-29T13:41:29;6.43;;;2.95;;
9467;SDS011;4772;52.382;9.752;2022-07-29T13:43:55;6.65;;;3.10;;
9467;SDS011;4772;52.382;9.752;2022-07-29T13:46:21;8.00;;;3.38;;
9467;SDS011;4772;52.382;9.752;2022-07-29T13:48:47;4.35;;;3.22;;
9467;SDS011;4772;52.382;9.752;2022-07-29T13:51:13;7.22;;;3.40;;
9467;SDS011;4772;52.382;9.752;2022-07-29T13:53:39;8.43;;;3.08;;
9467;SDS011;4772;52.382;9.752;2022-07-29T13:56:05;9.07;;;3.13;;
9467;SDS011;4772;52.382;9.752;2022-07-29T13:58:34;3.20;;;2.90;;
9467;SDS011;4772;52.382;9.752;2022-07-29T14:01:01;5.75;;;3.30;;
9467;SDS011;4772;52.382;9.752;2022-07-29T14:03:27;4.65;;;3.00;;
9467;SDS011;4772;52.382;9.752;2022-07-29T14:05:53;7.55;;;3.00;;
9467;SDS011;4772;52.382;9.752;2022-07-29T14:08:19;11.68;;;3.50;;
9467;SDS011;4772;52.382;9.752;2022-07-29T14:10:45;6.47;;;3.00;;
9467;SDS011;4772;52.382;9.752;2022-07-29T14:13:11;4.22;;;2.70;;
9467;SDS011;4772;52.382;9.752;2022-07-29T14:15:37;8.30;;;2.90;;
9467;SDS011;4772;52.382;9.752;2022-07-29T14:18:03;5.32;;;3.15;;
9467;SDS011;4772;52.382;9.752;2022-07-29T14:20:29;5.97;;;3.03;;
9467;SDS011;4772;52.382;9.752;2022-07-29T14:22:55;7.25;;;3.30;;
9467;SDS011;4772;52.382;9.752;2022-07-29T14:25:21;5.68;;;3.00;;
9467;SDS011;4772;52.382;9.752;2022-07-29T14:27:47;7.78;;;3.03;;
9467;SDS011;4772;52.382;9.752;2022-07-29T14:30:13;8.77;;;3.20;;
9467;SDS011;4772;52.382;9.752;2022-07-29T14:32:40;8.93;;;3.20;;
9467;SDS011;4772;52.382;9.752;2022-07-29T14:35:06;8.02;;;3.35;;
9467;SDS011;4772;52.382;9.752;2022-07-29T14:37:32;7.80;;;2.97;;
9467;SDS011;4772;52.382;9.752;2022-07-29T14:40:00;6.00;;;3.00;;
9467;SDS011;4772;52.382;9.752;2022-07-29T14:42:28;5.38;;;2.85;;
9467;SDS011;4772;52.382;9.752;2022-07-29T14:44:54;5.47;;;2.50;;
9467;SDS011;4772;52.382;9.752;2022-07-29T14:47:20;12.52;;;2.88;;
9467;SDS011;4772;52.382;9.752;2022-07-29T14:49:47;8.57;;;2.72;;
9467;SDS011;4772;52.382;9.752;2022-07-29T14:52:13;6.10;;;2.50;;
9467;SDS011;4772;52.382;9.752;2022-07-29T14:54:39;10.40;;;3.00;;
9467;SDS011;4772;52.382;9.752;2022-07-29T14:57:06;7.53;;;3.03;;
9467;SDS011;4772;52.382;9.752;2022-07-29T14:59:33;5.95;;;2.80;;
9467;SDS011;4772;52.382;9.752;2022-07-29T15:01:59;3.35;;;2.72;;
9467;SDS011;4772;52.382;9.752;2022-07-29T15:04:25;5.45;;;2.70;;
9467;SDS011;4772;52.382;9.752;2022-07-29T15:06:51;7.85;;;3.17;;
9467;SDS011;4772;52.382;9.752;2022-07-29T15:09:17;7.47;;;3.00;;
9467;SDS011;4772;52.382;9.752;2022-07-29T15:11:43;6.20;;;2.95;;
9467;SDS011;4772;52.382;9.752;2022-07-29T15:14:09;9.88;;;2.70;;
9467;SDS011;4772;52.382;9.752;2022-07-29T15:16:36;7.32;;;2.83;;
9467;SDS011;4772;52.382;9.752;2022-07-29T15:19:02;6.40;;;3.05;;
9467;SDS011;4772;52.382;9.752;2022-07-29T15:21:28;5.30;;;3.03;;
9467;SDS011;4772;52.382;9.752;2022-07-29T15:23:54;5.55;;;2.58;;
9467;SDS011;4772;52.382;9.752;2022-07-29T15:26:20;5.68;;;3.25;;
9467;SDS011;4772;52.382;9.752;2022-07-29T15:28:46;6.53;;;2.78;;
9467;SDS011;4772;52.382;9.752;2022-07-29T15:31:12;11.93;;;3.30;;
9467;SDS011;4772;52.382;9.752;2022-07-29T15:33:39;3.60;;;2.78;;
9467;SDS011;4772;52.382;9.752;2022-07-29T15:36:05;6.25;;;3.03;;
9467;SDS011;4772;52.382;9.752;2022-07-29T15:38:31;7.43;;;3.35;;
9467;SDS011;4772;52.382;9.752;2022-07-29T15:40:57;6.60;;;2.95;;
9467;SDS011;4772;52.382;9.752;2022-07-29T15:43:23;4.18;;;3.17;;
9467;SDS011;4772;52.382;9.752;2022-07-29T15:45:49;5.60;;;2.90;;
9467;SDS011;4772;52.382;9.752;2022-07-29T15:48:37;5.88;;;2.80;;
9467;SDS011;4772;52.382;9.752;2022-07-29T15:51:03;4.80;;;3.20;;
9467;SDS011;4772;52.382;9.752;2022-07-29T15:53:29;6.03;;;3.03;;
9467;SDS011;4772;52.382;9.752;2022-07-29T15:55:55;6.30;;;2.90;;
9467;SDS011;4772;52.382;9.752;2022-07-29T15:58:21;7.30;;;3.08;;